首页
METAR-TAF:

METAR-TAF

机场 :

Sarasota-Bradenton International Airport

Sarasota / 布雷登顿, 佛罗里达州, 美国

纬度: 27-24-05N, 经度: 082-33-31W, 海拔: 9米

当前天气观测

该预报发布于20分钟前的15:53 UTC
风速9节,风向东北,有时为16节阵风
温度 29°C
湿度 55%
气压 1017 hPa
能見度: 16.1公里
散云层高于4200英尺

METAR: KSRQ 231553Z 04009G16KT 10SM SCT042 29/19 A3002 RMK AO2 SLP164 T02940189

时间: 12:13 (16:13 UTC)

预报

该预报发布于4小时和35分钟前的11:38 UTC
预报有效从23日的 12点(UTC)到 24日的 12点(UTC)
风速8节,风向东北
能見度: 10公里
少量云层高于3500英尺
从 23日的 1500点(UTC)
风速11节,风向东转东北
能見度: 10公里
散云层高于4000英尺
从 23日的 2000点(UTC)
风速11节,风向北转东北
能見度: 10公里
散云层高于5000英尺
从 24日的 0200点(UTC)
风速6节,风向东转东北
能見度: 10公里
天空无云

TAF: KSRQ 231138Z 2312/2412 05008KT P6SM FEW035 FM231500 06011KT P6SM SCT040 FM232000 03011KT P6SM SCT050 FM240200 06006KT P6SM SKC

超过4000个机场的气象观测和天气预报(METAR&TAF报告)。

可查询的气象台以黄色和红色小点在地图上表示。

将鼠标移到小点上方,可查看气象台名称。

然后点击查看天气观测和预报。

如需切换地图:点击带黑十字的绿色按钮放大地图;点击带横线的绿色按钮缩小地图;或者点击绿色箭头查看邻近地区的地图。


METAR-TAF: